sensor_id;sensor_type;location;lat;lon;timestamp;temperature;humidity
21734;DHT22;11029;47.820;10.534;2024-02-04T00:01:42;4.90;75.70
21734;DHT22;11029;47.820;10.534;2024-02-04T00:04:28;4.80;75.90
21734;DHT22;11029;47.820;10.534;2024-02-04T00:07:14;4.80;75.80
21734;DHT22;11029;47.820;10.534;2024-02-04T00:09:59;4.80;75.90
21734;DHT22;11029;47.820;10.534;2024-02-04T00:12:45;4.80;76.20
21734;DHT22;11029;47.820;10.534;2024-02-04T00:15:31;4.70;76.50
21734;DHT22;11029;47.820;10.534;2024-02-04T00:18:16;4.80;76.60
21734;DHT22;11029;47.820;10.534;2024-02-04T00:21:02;4.80;76.70
21734;DHT22;11029;47.820;10.534;2024-02-04T00:23:48;4.80;76.90
21734;DHT22;11029;47.820;10.534;2024-02-04T00:26:33;4.90;76.80
21734;DHT22;11029;47.820;10.534;2024-02-04T00:29:19;4.90;76.90
21734;DHT22;11029;47.820;10.534;2024-02-04T00:32:04;4.90;77.10
21734;DHT22;11029;47.820;10.534;2024-02-04T00:34:50;4.90;77.20
21734;DHT22;11029;47.820;10.534;2024-02-04T00:37:36;4.90;77.30
21734;DHT22;11029;47.820;10.534;2024-02-04T00:40:22;4.90;77.50
21734;DHT22;11029;47.820;10.534;2024-02-04T00:43:08;4.80;77.90
21734;DHT22;11029;47.820;10.534;2024-02-04T00:45:54;4.70;78.20
21734;DHT22;11029;47.820;10.534;2024-02-04T00:48:42;4.60;78.90
21734;DHT22;11029;47.820;10.534;2024-02-04T00:51:28;4.60;79.30
21734;DHT22;11029;47.820;10.534;2024-02-04T00:54:14;4.50;79.60
21734;DHT22;11029;47.820;10.534;2024-02-04T00:56:59;4.50;79.90
21734;DHT22;11029;47.820;10.534;2024-02-04T00:59:46;4.50;80.20
21734;DHT22;11029;47.820;10.534;2024-02-04T01:02:31;4.50;80.10
21734;DHT22;11029;47.820;10.534;2024-02-04T01:05:17;4.40;80.90
21734;DHT22;11029;47.820;10.534;2024-02-04T01:08:03;4.30;81.00
21734;DHT22;11029;47.820;10.534;2024-02-04T01:10:49;4.20;81.30
21734;DHT22;11029;47.820;10.534;2024-02-04T01:13:36;4.20;81.90
21734;DHT22;11029;47.820;10.534;2024-02-04T01:16:21;4.20;82.00
21734;DHT22;11029;47.820;10.534;2024-02-04T01:19:07;4.20;82.00
21734;DHT22;11029;47.820;10.534;2024-02-04T01:21:53;4.20;82.00
21734;DHT22;11029;47.820;10.534;2024-02-04T01:24:38;4.30;81.80
21734;DHT22;11029;47.820;10.534;2024-02-04T01:27:24;4.30;81.60
21734;DHT22;11029;47.820;10.534;2024-02-04T01:30:10;4.30;81.50
21734;DHT22;11029;47.820;10.534;2024-02-04T01:32:55;4.30;81.40
21734;DHT22;11029;47.820;10.534;2024-02-04T01:35:41;4.30;81.40
21734;DHT22;11029;47.820;10.534;2024-02-04T01:38:26;4.30;81.20
21734;DHT22;11029;47.820;10.534;2024-02-04T01:41:12;4.20;81.20
21734;DHT22;11029;47.820;10.534;2024-02-04T01:43:57;4.10;81.50
21734;DHT22;11029;47.820;10.534;2024-02-04T01:46:43;4.20;81.50
21734;DHT22;11029;47.820;10.534;2024-02-04T01:49:29;4.20;81.20
21734;DHT22;11029;47.820;10.534;2024-02-04T01:52:16;4.20;81.20
21734;DHT22;11029;47.820;10.534;2024-02-04T01:55:03;4.20;81.20
21734;DHT22;11029;47.820;10.534;2024-02-04T01:57:50;4.20;81.20
21734;DHT22;11029;47.820;10.534;2024-02-04T02:00:36;4.30;81.10
21734;DHT22;11029;47.820;10.534;2024-02-04T02:03:23;4.20;81.10
21734;DHT22;11029;47.820;10.534;2024-02-04T02:06:10;4.30;81.00
21734;DHT22;11029;47.820;10.534;2024-02-04T02:08:58;4.20;81.00
21734;DHT22;11029;47.820;10.534;2024-02-04T02:12:12;4.20;80.90
21734;DHT22;11029;47.820;10.534;2024-02-04T02:15:05;4.20;80.70
21734;DHT22;11029;47.820;10.534;2024-02-04T02:17:59;4.10;80.70
21734;DHT22;11029;47.820;10.534;2024-02-04T02:27:08;4.20;80.60
21734;DHT22;11029;47.820;10.534;2024-02-04T02:29:55;4.30;80.30
21734;DHT22;11029;47.820;10.534;2024-02-04T02:32:40;4.40;79.90
21734;DHT22;11029;47.820;10.534;2024-02-04T02:35:26;4.40;79.70
21734;DHT22;11029;47.820;10.534;2024-02-04T02:38:41;4.40;79.70
21734;DHT22;11029;47.820;10.534;2024-02-04T02:41:30;4.30;80.00
21734;DHT22;11029;47.820;10.534;2024-02-04T02:44:18;4.20;80.50
21734;DHT22;11029;47.820;10.534;2024-02-04T02:47:05;4.10;80.80
21734;DHT22;11029;47.820;10.534;2024-02-04T02:49:52;4.00;80.80
21734;DHT22;11029;47.820;10.534;2024-02-04T02:52:39;4.00;81.10
21734;DHT22;11029;47.820;10.534;2024-02-04T02:55:25;3.90;81.40
21734;DHT22;11029;47.820;10.534;2024-02-04T02:58:11;3.80;81.60
21734;DHT22;11029;47.820;10.534;2024-02-04T03:00:58;3.80;81.90
21734;DHT22;11029;47.820;10.534;2024-02-04T03:03:44;3.80;82.00
21734;DHT22;11029;47.820;10.534;2024-02-04T03:06:29;3.80;82.00
21734;DHT22;11029;47.820;10.534;2024-02-04T03:09:15;3.80;82.00
21734;DHT22;11029;47.820;10.534;2024-02-04T03:12:02;3.80;82.10
21734;DHT22;11029;47.820;10.534;2024-02-04T03:14:48;3.80;82.50
21734;DHT22;11029;47.820;10.534;2024-02-04T03:17:34;3.80;82.30
21734;DHT22;11029;47.820;10.534;2024-02-04T03:20:20;3.80;82.50
21734;DHT22;11029;47.820;10.534;2024-02-04T03:23:06;3.70;82.90
21734;DHT22;11029;47.820;10.534;2024-02-04T03:25:52;3.60;83.20
21734;DHT22;11029;47.820;10.534;2024-02-04T03:28:38;3.60;83.40
21734;DHT22;11029;47.820;10.534;2024-02-04T03:31:24;3.60;83.70
21734;DHT22;11029;47.820;10.534;2024-02-04T03:34:11;3.50;84.00
21734;DHT22;11029;47.820;10.534;2024-02-04T03:36:57;3.50;84.30
21734;DHT22;11029;47.820;10.534;2024-02-04T03:39:43;3.50;84.10
21734;DHT22;11029;47.820;10.534;2024-02-04T03:42:28;3.60;83.90
21734;DHT22;11029;47.820;10.534;2024-02-04T03:45:15;3.70;83.70
21734;DHT22;11029;47.820;10.534;2024-02-04T03:48:01;3.80;83.10
21734;DHT22;11029;47.820;10.534;2024-02-04T03:50:47;3.90;82.60
21734;DHT22;11029;47.820;10.534;2024-02-04T03:53:33;4.00;82.30
21734;DHT22;11029;47.820;10.534;2024-02-04T03:56:19;4.10;82.00
21734;DHT22;11029;47.820;10.534;2024-02-04T03:59:07;4.10;81.80
21734;DHT22;11029;47.820;10.534;2024-02-04T04:01:54;4.10;81.50
21734;DHT22;11029;47.820;10.534;2024-02-04T04:04:40;4.10;81.50
21734;DHT22;11029;47.820;10.534;2024-02-04T04:07:32;4.10;81.30
21734;DHT22;11029;47.820;10.534;2024-02-04T04:10:18;4.20;81.20
21734;DHT22;11029;47.820;10.534;2024-02-04T04:13:04;4.20;81.20
21734;DHT22;11029;47.820;10.534;2024-02-04T04:15:51;4.20;81.20
21734;DHT22;11029;47.820;10.534;2024-02-04T04:18:37;4.20;81.20
21734;DHT22;11029;47.820;10.534;2024-02-04T04:21:23;4.10;81.50
21734;DHT22;11029;47.820;10.534;2024-02-04T04:24:09;3.90;82.10
21734;DHT22;11029;47.820;10.534;2024-02-04T04:26:54;3.90;82.40
21734;DHT22;11029;47.820;10.534;2024-02-04T04:29:40;3.80;82.60
21734;DHT22;11029;47.820;10.534;2024-02-04T04:32:25;3.80;82.90
21734;DHT22;11029;47.820;10.534;2024-02-04T04:35:11;3.70;83.20
21734;DHT22;11029;47.820;10.534;2024-02-04T04:37:57;3.60;83.70
21734;DHT22;11029;47.820;10.534;2024-02-04T04:40:43;3.60;84.10
21734;DHT22;11029;47.820;10.534;2024-02-04T04:43:32;3.50;84.10
21734;DHT22;11029;47.820;10.534;2024-02-04T04:46:17;3.50;84.00
21734;DHT22;11029;47.820;10.534;2024-02-04T04:49:04;3.70;83.50
21734;DHT22;11029;47.820;10.534;2024-02-04T04:51:50;3.70;83.20
21734;DHT22;11029;47.820;10.534;2024-02-04T04:54:36;3.70;83.00
21734;DHT22;11029;47.820;10.534;2024-02-04T04:57:22;3.80;82.70
21734;DHT22;11029;47.820;10.534;2024-02-04T05:00:08;3.80;82.40
21734;DHT22;11029;47.820;10.534;2024-02-04T05:02:55;3.80;82.20
21734;DHT22;11029;47.820;10.534;2024-02-04T05:05:41;3.80;82.20
21734;DHT22;11029;47.820;10.534;2024-02-04T05:08:27;3.80;82.00
21734;DHT22;11029;47.820;10.534;2024-02-04T05:11:12;3.80;81.70
21734;DHT22;11029;47.820;10.534;2024-02-04T05:13:58;3.80;81.40
21734;DHT22;11029;47.820;10.534;2024-02-04T05:16:43;3.80;81.50
21734;DHT22;11029;47.820;10.534;2024-02-04T05:19:30;3.80;81.50
21734;DHT22;11029;47.820;10.534;2024-02-04T05:22:16;3.90;81.00
21734;DHT22;11029;47.820;10.534;2024-02-04T05:25:01;3.90;80.80
21734;DHT22;11029;47.820;10.534;2024-02-04T05:27:48;3.90;80.90
21734;DHT22;11029;47.820;10.534;2024-02-04T05:30:34;3.90;80.90
21734;DHT22;11029;47.820;10.534;2024-02-04T05:33:19;3.90;80.90
21734;DHT22;11029;47.820;10.534;2024-02-04T05:36:05;3.90;80.70
21734;DHT22;11029;47.820;10.534;2024-02-04T05:38:50;3.90;80.50
21734;DHT22;11029;47.820;10.534;2024-02-04T05:41:36;3.90;80.50
21734;DHT22;11029;47.820;10.534;2024-02-04T05:44:21;3.90;80.10
21734;DHT22;11029;47.820;10.534;2024-02-04T05:47:07;3.90;80.00
21734;DHT22;11029;47.820;10.534;2024-02-04T05:49:53;3.90;79.90
21734;DHT22;11029;47.820;10.534;2024-02-04T05:52:39;3.90;79.80
21734;DHT22;11029;47.820;10.534;2024-02-04T05:55:24;3.90;79.40
21734;DHT22;11029;47.820;10.534;2024-02-04T05:58:09;4.00;79.10
21734;DHT22;11029;47.820;10.534;2024-02-04T06:00:55;4.00;78.80
21734;DHT22;11029;47.820;10.534;2024-02-04T06:03:42;4.00;78.50
21734;DHT22;11029;47.820;10.534;2024-02-04T06:06:28;4.00;78.20
21734;DHT22;11029;47.820;10.534;2024-02-04T06:09:14;4.10;78.10
21734;DHT22;11029;47.820;10.534;2024-02-04T06:12:00;4.10;77.90
21734;DHT22;11029;47.820;10.534;2024-02-04T06:14:45;4.10;77.80
21734;DHT22;11029;47.820;10.534;2024-02-04T06:17:31;4.20;77.60
21734;DHT22;11029;47.820;10.534;2024-02-04T06:20:16;4.20;77.40
21734;DHT22;11029;47.820;10.534;2024-02-04T06:23:02;4.20;77.20
21734;DHT22;11029;47.820;10.534;2024-02-04T06:25:47;4.20;77.20
21734;DHT22;11029;47.820;10.534;2024-02-04T06:28:33;4.20;77.20
21734;DHT22;11029;47.820;10.534;2024-02-04T06:31:19;4.20;77.00
21734;DHT22;11029;47.820;10.534;2024-02-04T06:34:05;4.20;76.90
21734;DHT22;11029;47.820;10.534;2024-02-04T06:36:51;4.20;77.00
21734;DHT22;11029;47.820;10.534;2024-02-04T06:39:37;4.20;76.90
21734;DHT22;11029;47.820;10.534;2024-02-04T06:42:23;4.20;76.50
21734;DHT22;11029;47.820;10.534;2024-02-04T06:45:10;4.30;76.10
21734;DHT22;11029;47.820;10.534;2024-02-04T06:47:56;4.40;76.00
21734;DHT22;11029;47.820;10.534;2024-02-04T06:50:41;4.40;75.80
21734;DHT22;11029;47.820;10.534;2024-02-04T06:53:29;4.50;75.20
21734;DHT22;11029;47.820;10.534;2024-02-04T06:56:14;4.60;74.90
21734;DHT22;11029;47.820;10.534;2024-02-04T06:59:00;4.60;74.50
21734;DHT22;11029;47.820;10.534;2024-02-04T07:01:45;4.70;74.20
21734;DHT22;11029;47.820;10.534;2024-02-04T07:04:32;4.80;73.90
21734;DHT22;11029;47.820;10.534;2024-02-04T07:07:17;4.90;73.60
21734;DHT22;11029;47.820;10.534;2024-02-04T07:10:03;4.90;73.50
21734;DHT22;11029;47.820;10.534;2024-02-04T07:12:50;5.00;73.30
21734;DHT22;11029;47.820;10.534;2024-02-04T07:15:36;5.00;73.20
21734;DHT22;11029;47.820;10.534;2024-02-04T07:18:21;5.00;73.30
21734;DHT22;11029;47.820;10.534;2024-02-04T07:21:08;4.90;73.20
21734;DHT22;11029;47.820;10.534;2024-02-04T07:23:53;5.00;73.20
21734;DHT22;11029;47.820;10.534;2024-02-04T07:26:39;4.90;73.30
21734;DHT22;11029;47.820;10.534;2024-02-04T07:29:24;5.00;73.40
21734;DHT22;11029;47.820;10.534;2024-02-04T07:32:10;4.90;73.70
21734;DHT22;11029;47.820;10.534;2024-02-04T07:34:56;4.90;73.90
21734;DHT22;11029;47.820;10.534;2024-02-04T07:37:42;4.90;74.50
21734;DHT22;11029;47.820;10.534;2024-02-04T07:40:27;4.80;75.00
21734;DHT22;11029;47.820;10.534;2024-02-04T07:43:13;4.70;75.20
21734;DHT22;11029;47.820;10.534;2024-02-04T07:45:59;4.70;75.60
21734;DHT22;11029;47.820;10.534;2024-02-04T07:48:48;4.60;75.80
21734;DHT22;11029;47.820;10.534;2024-02-04T07:51:34;4.70;75.30
21734;DHT22;11029;47.820;10.534;2024-02-04T07:54:21;4.70;75.00
21734;DHT22;11029;47.820;10.534;2024-02-04T07:57:06;4.80;75.00
21734;DHT22;11029;47.820;10.534;2024-02-04T07:59:52;4.90;74.90
21734;DHT22;11029;47.820;10.534;2024-02-04T08:02:37;5.00;74.70
21734;DHT22;11029;47.820;10.534;2024-02-04T08:05:23;5.10;74.70
21734;DHT22;11029;47.820;10.534;2024-02-04T08:08:09;5.20;74.50
21734;DHT22;11029;47.820;10.534;2024-02-04T08:10:54;5.20;74.50
21734;DHT22;11029;47.820;10.534;2024-02-04T08:13:43;5.20;74.30
21734;DHT22;11029;47.820;10.534;2024-02-04T08:16:29;5.10;74.30
21734;DHT22;11029;47.820;10.534;2024-02-04T08:19:15;5.10;74.50
21734;DHT22;11029;47.820;10.534;2024-02-04T08:22:01;5.00;74.90
21734;DHT22;11029;47.820;10.534;2024-02-04T08:24:46;5.10;75.10
21734;DHT22;11029;47.820;10.534;2024-02-04T08:27:32;5.20;75.00
21734;DHT22;11029;47.820;10.534;2024-02-04T08:30:18;5.40;75.20
21734;DHT22;11029;47.820;10.534;2024-02-04T08:33:04;5.50;75.20
21734;DHT22;11029;47.820;10.534;2024-02-04T08:35:49;5.60;74.30
21734;DHT22;11029;47.820;10.534;2024-02-04T08:38:35;5.70;74.20
21734;DHT22;11029;47.820;10.534;2024-02-04T08:41:20;5.90;73.20
21734;DHT22;11029;47.820;10.534;2024-02-04T08:44:06;6.00;72.90
21734;DHT22;11029;47.820;10.534;2024-02-04T08:46:54;6.10;72.30
21734;DHT22;11029;47.820;10.534;2024-02-04T08:49:40;6.10;72.40
21734;DHT22;11029;47.820;10.534;2024-02-04T08:52:26;6.10;72.80
21734;DHT22;11029;47.820;10.534;2024-02-04T08:55:13;5.90;72.90
21734;DHT22;11029;47.820;10.534;2024-02-04T08:57:59;5.90;73.00
21734;DHT22;11029;47.820;10.534;2024-02-04T09:00:44;5.90;72.30
21734;DHT22;11029;47.820;10.534;2024-02-04T09:03:30;5.90;72.60
21734;DHT22;11029;47.820;10.534;2024-02-04T09:06:16;5.90;72.40
21734;DHT22;11029;47.820;10.534;2024-02-04T09:09:02;5.90;72.70
21734;DHT22;11029;47.820;10.534;2024-02-04T09:11:48;5.80;72.70
21734;DHT22;11029;47.820;10.534;2024-02-04T09:14:33;5.80;73.00
21734;DHT22;11029;47.820;10.534;2024-02-04T09:17:19;5.80;73.30
21734;DHT22;11029;47.820;10.534;2024-02-04T09:20:06;5.80;73.20
21734;DHT22;11029;47.820;10.534;2024-02-04T09:22:53;5.90;72.70
21734;DHT22;11029;47.820;10.534;2024-02-04T09:25:39;5.90;73.20
21734;DHT22;11029;47.820;10.534;2024-02-04T09:28:24;5.90;73.10
21734;DHT22;11029;47.820;10.534;2024-02-04T09:31:10;6.00;72.70
21734;DHT22;11029;47.820;10.534;2024-02-04T09:33:56;6.00;72.50
21734;DHT22;11029;47.820;10.534;2024-02-04T09:36:44;5.90;72.80
21734;DHT22;11029;47.820;10.534;2024-02-04T09:39:29;5.80;73.40
21734;DHT22;11029;47.820;10.534;2024-02-04T09:42:21;5.80;73.80
21734;DHT22;11029;47.820;10.534;2024-02-04T09:45:09;5.80;73.60
21734;DHT22;11029;47.820;10.534;2024-02-04T09:47:55;5.80;73.90
21734;DHT22;11029;47.820;10.534;2024-02-04T09:50:41;5.80;73.90
21734;DHT22;11029;47.820;10.534;2024-02-04T09:53:33;5.80;73.80
21734;DHT22;11029;47.820;10.534;2024-02-04T09:56:25;5.90;73.80
21734;DHT22;11029;47.820;10.534;2024-02-04T09:59:11;6.00;73.20
21734;DHT22;11029;47.820;10.534;2024-02-04T10:01:57;6.10;73.10
21734;DHT22;11029;47.820;10.534;2024-02-04T10:04:42;6.10;72.90
21734;DHT22;11029;47.820;10.534;2024-02-04T10:07:28;6.20;72.60
21734;DHT22;11029;47.820;10.534;2024-02-04T10:10:14;6.20;72.60
21734;DHT22;11029;47.820;10.534;2024-02-04T10:13:08;6.30;72.10
21734;DHT22;11029;47.820;10.534;2024-02-04T10:15:55;6.30;71.90
21734;DHT22;11029;47.820;10.534;2024-02-04T10:18:48;6.40;72.10
21734;DHT22;11029;47.820;10.534;2024-02-04T10:21:36;6.60;71.60
21734;DHT22;11029;47.820;10.534;2024-02-04T10:24:22;6.80;71.10
21734;DHT22;11029;47.820;10.534;2024-02-04T10:27:10;7.00;70.10
21734;DHT22;11029;47.820;10.534;2024-02-04T10:30:07;7.20;68.70
21734;DHT22;11029;47.820;10.534;2024-02-04T10:32:53;7.40;68.00
21734;DHT22;11029;47.820;10.534;2024-02-04T10:35:41;7.70;65.90
21734;DHT22;11029;47.820;10.534;2024-02-04T10:38:29;7.80;64.80
21734;DHT22;11029;47.820;10.534;2024-02-04T10:41:17;8.00;63.50
21734;DHT22;11029;47.820;10.534;2024-02-04T10:44:03;8.10;63.40
21734;DHT22;11029;47.820;10.534;2024-02-04T10:46:51;8.20;63.30
21734;DHT22;11029;47.820;10.534;2024-02-04T10:49:41;8.30;62.00
21734;DHT22;11029;47.820;10.534;2024-02-04T10:52:36;8.50;62.20
21734;DHT22;11029;47.820;10.534;2024-02-04T10:55:29;8.50;61.90
21734;DHT22;11029;47.820;10.534;2024-02-04T10:58:16;8.50;61.80
21734;DHT22;11029;47.820;10.534;2024-02-04T11:01:03;8.40;60.20
21734;DHT22;11029;47.820;10.534;2024-02-04T11:03:50;8.50;60.70
21734;DHT22;11029;47.820;10.534;2024-02-04T11:06:38;8.70;60.40
21734;DHT22;11029;47.820;10.534;2024-02-04T11:09:26;8.90;60.30
21734;DHT22;11029;47.820;10.534;2024-02-04T11:12:16;8.90;59.20
21734;DHT22;11029;47.820;10.534;2024-02-04T11:15:05;9.00;59.40
21734;DHT22;11029;47.820;10.534;2024-02-04T11:18:30;9.00;59.10
21734;DHT22;11029;47.820;10.534;2024-02-04T11:21:42;9.00;58.60
21734;DHT22;11029;47.820;10.534;2024-02-04T11:25:07;9.10;57.80
21734;DHT22;11029;47.820;10.534;2024-02-04T11:28:02;9.30;58.20
21734;DHT22;11029;47.820;10.534;2024-02-04T11:30:48;9.40;57.80
21734;DHT22;11029;47.820;10.534;2024-02-04T11:33:36;9.50;56.90
21734;DHT22;11029;47.820;10.534;2024-02-04T11:36:25;9.60;56.90
21734;DHT22;11029;47.820;10.534;2024-02-04T11:39:17;9.80;56.10
21734;DHT22;11029;47.820;10.534;2024-02-04T11:42:14;9.70;55.80
21734;DHT22;11029;47.820;10.534;2024-02-04T11:45:11;9.60;56.60
21734;DHT22;11029;47.820;10.534;2024-02-04T11:48:01;9.50;57.40
21734;DHT22;11029;47.820;10.534;2024-02-04T11:50:54;9.90;57.50
21734;DHT22;11029;47.820;10.534;2024-02-04T11:53:41;9.80;56.00
21734;DHT22;11029;47.820;10.534;2024-02-04T11:56:26;9.80;56.60
21734;DHT22;11029;47.820;10.534;2024-02-04T11:59:12;9.90;56.10
21734;DHT22;11029;47.820;10.534;2024-02-04T12:02:05;9.80;56.30
21734;DHT22;11029;47.820;10.534;2024-02-04T12:04:52;9.90;56.60
21734;DHT22;11029;47.820;10.534;2024-02-04T12:07:39;10.20;56.40
21734;DHT22;11029;47.820;10.534;2024-02-04T12:10:30;10.30;55.50
21734;DHT22;11029;47.820;10.534;2024-02-04T12:13:18;10.30;54.00
21734;DHT22;11029;47.820;10.534;2024-02-04T12:16:06;10.40;54.20
21734;DHT22;11029;47.820;10.534;2024-02-04T12:18:54;10.30;54.40
21734;DHT22;11029;47.820;10.534;2024-02-04T12:21:39;10.30;54.90
21734;DHT22;11029;47.820;10.534;2024-02-04T12:24:26;10.40;54.40
21734;DHT22;11029;47.820;10.534;2024-02-04T12:27:11;10.20;54.40
21734;DHT22;11029;47.820;10.534;2024-02-04T12:29:58;10.00;54.70
21734;DHT22;11029;47.820;10.534;2024-02-04T12:32:44;10.10;55.20
21734;DHT22;11029;47.820;10.534;2024-02-04T12:35:30;10.20;54.20
21734;DHT22;11029;47.820;10.534;2024-02-04T12:38:16;10.50;53.90
21734;DHT22;11029;47.820;10.534;2024-02-04T12:41:03;10.00;54.60
21734;DHT22;11029;47.820;10.534;2024-02-04T12:43:53;9.90;54.30
21734;DHT22;11029;47.820;10.534;2024-02-04T12:46:39;9.90;54.40
21734;DHT22;11029;47.820;10.534;2024-02-04T12:49:25;9.90;55.40
21734;DHT22;11029;47.820;10.534;2024-02-04T12:52:11;9.90;55.10
21734;DHT22;11029;47.820;10.534;2024-02-04T12:54:57;10.10;55.20
21734;DHT22;11029;47.820;10.534;2024-02-04T12:57:43;10.20;54.30
21734;DHT22;11029;47.820;10.534;2024-02-04T13:00:28;10.10;54.00
21734;DHT22;11029;47.820;10.534;2024-02-04T13:03:15;10.20;53.50
21734;DHT22;11029;47.820;10.534;2024-02-04T13:06:01;10.30;52.50
21734;DHT22;11029;47.820;10.534;2024-02-04T13:08:47;10.30;53.00
21734;DHT22;11029;47.820;10.534;2024-02-04T13:11:32;10.40;52.00
21734;DHT22;11029;47.820;10.534;2024-02-04T13:14:18;10.50;51.40
21734;DHT22;11029;47.820;10.534;2024-02-04T13:17:04;10.50;52.50
21734;DHT22;11029;47.820;10.534;2024-02-04T13:19:51;10.70;52.10
21734;DHT22;11029;47.820;10.534;2024-02-04T13:22:36;10.80;51.70
21734;DHT22;11029;47.820;10.534;2024-02-04T13:25:22;10.80;52.00
21734;DHT22;11029;47.820;10.534;2024-02-04T13:28:09;10.70;51.80
21734;DHT22;11029;47.820;10.534;2024-02-04T13:30:54;10.60;52.40
21734;DHT22;11029;47.820;10.534;2024-02-04T13:33:40;10.50;52.80
21734;DHT22;11029;47.820;10.534;2024-02-04T13:36:26;10.50;53.10
21734;DHT22;11029;47.820;10.534;2024-02-04T13:39:12;10.40;53.50
21734;DHT22;11029;47.820;10.534;2024-02-04T13:44:44;10.90;51.20
21734;DHT22;11029;47.820;10.534;2024-02-04T13:47:30;10.60;52.10
21734;DHT22;11029;47.820;10.534;2024-02-04T13:50:16;10.60;52.30
21734;DHT22;11029;47.820;10.534;2024-02-04T13:53:02;10.50;51.10
21734;DHT22;11029;47.820;10.534;2024-02-04T13:55:49;10.50;52.00
21734;DHT22;11029;47.820;10.534;2024-02-04T13:58:35;10.50;52.60
21734;DHT22;11029;47.820;10.534;2024-02-04T14:01:21;10.60;52.30
21734;DHT22;11029;47.820;10.534;2024-02-04T14:04:08;10.60;52.60
21734;DHT22;11029;47.820;10.534;2024-02-04T14:06:54;10.70;51.80
21734;DHT22;11029;47.820;10.534;2024-02-04T14:09:39;10.90;51.00
21734;DHT22;11029;47.820;10.534;2024-02-04T14:12:24;10.90;51.90
21734;DHT22;11029;47.820;10.534;2024-02-04T14:15:10;10.70;50.30
21734;DHT22;11029;47.820;10.534;2024-02-04T14:17:56;10.70;51.10
21734;DHT22;11029;47.820;10.534;2024-02-04T14:20:42;10.60;51.00
21734;DHT22;11029;47.820;10.534;2024-02-04T14:23:28;10.50;50.40
21734;DHT22;11029;47.820;10.534;2024-02-04T14:26:17;10.40;50.50
21734;DHT22;11029;47.820;10.534;2024-02-04T14:29:03;10.40;50.60
21734;DHT22;11029;47.820;10.534;2024-02-04T14:31:49;10.30;50.40
21734;DHT22;11029;47.820;10.534;2024-02-04T14:34:35;10.30;50.90
21734;DHT22;11029;47.820;10.534;2024-02-04T14:37:20;10.30;50.20
21734;DHT22;11029;47.820;10.534;2024-02-04T14:40:07;10.30;51.70
21734;DHT22;11029;47.820;10.534;2024-02-04T14:42:52;10.20;51.30
21734;DHT22;11029;47.820;10.534;2024-02-04T14:45:38;10.20;50.40
21734;DHT22;11029;47.820;10.534;2024-02-04T14:48:24;10.20;50.80
21734;DHT22;11029;47.820;10.534;2024-02-04T14:51:09;10.20;51.20
21734;DHT22;11029;47.820;10.534;2024-02-04T14:53:55;10.20;51.60
21734;DHT22;11029;47.820;10.534;2024-02-04T14:56:41;10.20;50.40
21734;DHT22;11029;47.820;10.534;2024-02-04T14:59:27;10.10;51.30
21734;DHT22;11029;47.820;10.534;2024-02-04T15:02:13;10.10;50.20
21734;DHT22;11029;47.820;10.534;2024-02-04T15:04:59;10.10;51.00
21734;DHT22;11029;47.820;10.534;2024-02-04T15:07:44;10.00;50.30
21734;DHT22;11029;47.820;10.534;2024-02-04T15:10:33;10.00;50.30
21734;DHT22;11029;47.820;10.534;2024-02-04T15:13:18;9.90;51.10
21734;DHT22;11029;47.820;10.534;2024-02-04T15:16:05;9.90;51.10
21734;DHT22;11029;47.820;10.534;2024-02-04T15:18:52;9.80;51.00
21734;DHT22;11029;47.820;10.534;2024-02-04T15:21:38;9.80;51.60
21734;DHT22;11029;47.820;10.534;2024-02-04T15:24:24;9.80;51.60
21734;DHT22;11029;47.820;10.534;2024-02-04T15:27:10;9.70;51.80
21734;DHT22;11029;47.820;10.534;2024-02-04T15:29:56;9.70;51.90
21734;DHT22;11029;47.820;10.534;2024-02-04T15:32:42;9.70;51.60
21734;DHT22;11029;47.820;10.534;2024-02-04T15:35:28;9.60;51.90
21734;DHT22;11029;47.820;10.534;2024-02-04T15:38:14;9.70;51.60
21734;DHT22;11029;47.820;10.534;2024-02-04T15:41:03;9.60;51.90
21734;DHT22;11029;47.820;10.534;2024-02-04T15:43:48;9.60;52.10
21734;DHT22;11029;47.820;10.534;2024-02-04T15:46:35;9.60;51.70
21734;DHT22;11029;47.820;10.534;2024-02-04T15:49:24;9.60;51.60
21734;DHT22;11029;47.820;10.534;2024-02-04T15:52:10;9.60;52.00
21734;DHT22;11029;47.820;10.534;2024-02-04T15:54:56;9.50;52.00
21734;DHT22;11029;47.820;10.534;2024-02-04T15:57:49;9.50;52.40
21734;DHT22;11029;47.820;10.534;2024-02-04T16:00:36;9.40;52.00
21734;DHT22;11029;47.820;10.534;2024-02-04T16:03:22;9.40;51.30
21734;DHT22;11029;47.820;10.534;2024-02-04T16:06:08;9.40;51.00
21734;DHT22;11029;47.820;10.534;2024-02-04T16:08:54;9.50;51.10
21734;DHT22;11029;47.820;10.534;2024-02-04T16:11:49;9.40;51.50
21734;DHT22;11029;47.820;10.534;2024-02-04T16:14:44;9.50;52.00
21734;DHT22;11029;47.820;10.534;2024-02-04T16:17:37;9.40;52.30
21734;DHT22;11029;47.820;10.534;2024-02-04T16:20:24;9.40;52.20
21734;DHT22;11029;47.820;10.534;2024-02-04T16:23:11;9.40;52.70
21734;DHT22;11029;47.820;10.534;2024-02-04T16:25:56;9.40;52.70
21734;DHT22;11029;47.820;10.534;2024-02-04T16:28:44;9.40;53.30
21734;DHT22;11029;47.820;10.534;2024-02-04T16:31:29;9.30;54.10
21734;DHT22;11029;47.820;10.534;2024-02-04T16:34:15;9.20;54.50
21734;DHT22;11029;47.820;10.534;2024-02-04T16:37:01;9.20;54.60
21734;DHT22;11029;47.820;10.534;2024-02-04T16:39:48;9.20;55.00
21734;DHT22;11029;47.820;10.534;2024-02-04T16:42:33;9.10;55.20
21734;DHT22;11029;47.820;10.534;2024-02-04T16:45:20;9.10;55.60
21734;DHT22;11029;47.820;10.534;2024-02-04T16:48:06;9.10;56.00
21734;DHT22;11029;47.820;10.534;2024-02-04T16:50:52;9.00;56.40
21734;DHT22;11029;47.820;10.534;2024-02-04T16:53:37;9.00;56.40
21734;DHT22;11029;47.820;10.534;2024-02-04T16:56:23;9.00;56.70
21734;DHT22;11029;47.820;10.534;2024-02-04T16:59:08;9.10;57.10
21734;DHT22;11029;47.820;10.534;2024-02-04T17:01:54;9.00;57.90
21734;DHT22;11029;47.820;10.534;2024-02-04T17:04:41;9.00;57.90
21734;DHT22;11029;47.820;10.534;2024-02-04T17:07:28;8.90;58.70
21734;DHT22;11029;47.820;10.534;2024-02-04T17:10:14;8.90;58.80
21734;DHT22;11029;47.820;10.534;2024-02-04T17:13:00;8.80;59.20
21734;DHT22;11029;47.820;10.534;2024-02-04T17:15:47;8.80;59.40
21734;DHT22;11029;47.820;10.534;2024-02-04T17:18:55;8.80;59.40
21734;DHT22;11029;47.820;10.534;2024-02-04T17:21:52;8.80;59.70
21734;DHT22;11029;47.820;10.534;2024-02-04T17:24:43;8.70;59.90
21734;DHT22;11029;47.820;10.534;2024-02-04T17:27:35;8.70;60.10
21734;DHT22;11029;47.820;10.534;2024-02-04T17:30:26;8.70;59.70
21734;DHT22;11029;47.820;10.534;2024-02-04T17:33:12;8.70;60.00
21734;DHT22;11029;47.820;10.534;2024-02-04T17:36:02;8.70;59.90
21734;DHT22;11029;47.820;10.534;2024-02-04T17:38:47;8.60;60.10
21734;DHT22;11029;47.820;10.534;2024-02-04T17:41:33;8.50;60.60